Ecospiritp — SVA6084 — position and weather

sailwx.info

Track history (hours):
 
Tides and Currents Weather Stations Pressure Air Temp Water Temp Dewpoint Dewpoint Depression Visibility Wind Speed Wind Dir Waves Ship Positions

Ecospiritp

Last reported at 2018-Feb-17 23:29 UTC. Time now 2018-Feb-17 23:55 UTC.
Position N 37°57' E 023°37'.

Length 69 m; draft 1 m.

Type: Tanker. MMSI: 239864200.

Date/timePositionNaut miles runAvg speedWind from/ knotsBaromVisibWave heightAir tempDewpointWater temp
2018-Feb-17 23:29N 37°57' E 023°37'0 0.0
2018-Feb-17 23:00N 37°57' E 023°37'0 0.0
2018-Feb-17 22:30N 37°57' E 023°37'0 0.0
2018-Feb-17 22:00N 37°57' E 023°37'0 0.0
2018-Feb-17 21:30N 37°57' E 023°37'0 0.0
2018-Feb-17 21:00N 37°57' E 023°37'0 0.0
2018-Feb-17 20:29N 37°57' E 023°37'0 0.0
2018-Feb-17 20:00N 37°57' E 023°37'0 0.0
2018-Feb-17 19:30N 37°57' E 023°37'0 0.0
2018-Feb-17 19:00N 37°57' E 023°37'0 0.0
2018-Feb-17 18:29N 37°57' E 023°37'0 0.0
2018-Feb-17 18:00N 37°57' E 023°37'0 0.0
2018-Feb-17 17:30N 37°57' E 023°37'0 0.0
2018-Feb-17 17:00N 37°57' E 023°37'0 0.0
2018-Feb-17 16:30N 37°57' E 023°37'0 0.0
2018-Feb-17 16:00N 37°57' E 023°37'0 0.0
2018-Feb-17 15:30N 37°57' E 023°37'0 0.0
2018-Feb-17 15:00N 37°57' E 023°37'0 0.0
2018-Feb-17 14:30N 37°57' E 023°37'0 0.0
2018-Feb-17 14:00N 37°57' E 023°37'0 0.0
2018-Feb-17 13:30N 37°57' E 023°37'0 0.0
2018-Feb-17 13:00N 37°57' E 023°37'0 0.0
2018-Feb-17 12:30N 37°57' E 023°37'0 0.0
2018-Feb-17 12:00N 37°57' E 023°37'0 0.0
2018-Feb-17 11:30N 37°57' E 023°37'0 0.0
2018-Feb-17 11:00N 37°57' E 023°37'0 0.0
2018-Feb-17 10:30N 37°57' E 023°37'0 0.0
2018-Feb-17 10:00N 37°57' E 023°37'0 0.0
2018-Feb-17 09:30N 37°57' E 023°37'0 0.0
2018-Feb-17 08:59N 37°57' E 023°37'0 0.0
2018-Feb-17 08:30N 37°57' E 023°37'0 0.0
2018-Feb-17 08:00N 37°57' E 023°37'0 0.0
2018-Feb-17 07:30N 37°57' E 023°37'0 0.0
2018-Feb-17 07:00N 37°57' E 023°37'0 0.0
2018-Feb-17 06:30N 37°57' E 023°37'0 0.0
2018-Feb-17 06:00N 37°57' E 023°37'0 0.0
2018-Feb-17 05:30N 37°57' E 023°37'0 0.0
2018-Feb-17 05:00N 37°57' E 023°37'0 0.0
2018-Feb-17 04:30N 37°57' E 023°37'0 0.0
2018-Feb-17 04:00N 37°57' E 023°37'0 0.0
2018-Feb-17 03:30N 37°57' E 023°37'0 0.0
2018-Feb-17 03:00N 37°57' E 023°37'0 0.0
2018-Feb-17 02:30N 37°57' E 023°37'0 0.0
2018-Feb-17 02:00N 37°57' E 023°37'0 0.0
2018-Feb-17 01:30N 37°57' E 023°37'0 0.0
2018-Feb-17 01:00N 37°57' E 023°37'0 0.0
2018-Feb-17 00:30N 37°57' E 023°37'0 0.0
2018-Feb-17 00:00N 37°57' E 023°37'0 0.0
2018-Feb-16 23:30N 37°57' E 023°37'0 0.0
2018-Feb-16 23:00N 37°57' E 023°37'0 0.0
2018-Feb-16 22:30N 37°57' E 023°37'0 0.0
2018-Feb-16 22:00N 37°57' E 023°37'0 0.0
2018-Feb-16 21:29N 37°57' E 023°37'0 0.0
2018-Feb-16 21:00N 37°57' E 023°37'0 0.0
2018-Feb-16 20:30N 37°57' E 023°37'0 0.0
2018-Feb-16 20:00N 37°57' E 023°37'0 0.0
2018-Feb-16 19:30N 37°57' E 023°37'0 0.0
2018-Feb-16 19:00N 37°57' E 023°37'0 0.0
2018-Feb-16 18:30N 37°57' E 023°37'0 0.0
2018-Feb-16 18:00N 37°57' E 023°37'0 0.0
2018-Feb-16 17:30N 37°57' E 023°37'0 0.0
2018-Feb-16 16:59N 37°57' E 023°37'0 0.0
2018-Feb-16 16:30N 37°57' E 023°37'2 3.4
2018-Feb-16 16:00N 37°57' E 023°35'4 8.2
2018-Feb-16 15:30N 38°01' E 023°33'0 0.8
2018-Feb-16 15:00N 38°01' E 023°32'0 0.1
2018-Feb-16 14:30N 38°01' E 023°32'4 7.3
2018-Feb-16 14:00N 37°57' E 023°33'3 5.8
2018-Feb-16 13:30N 37°57' E 023°37'0 0.5
2018-Feb-16 13:00N 37°57' E 023°37'0 0.0
2018-Feb-16 12:30N 37°57' E 023°37'0 0.3
2018-Feb-16 12:00N 37°57' E 023°37'0 0.0
2018-Feb-16 11:30N 37°57' E 023°37'0 0.0
2018-Feb-16 11:00N 37°57' E 023°37'0 0.0
2018-Feb-16 10:30N 37°57' E 023°37'0 0.0
2018-Feb-16 10:00N 37°57' E 023°37'0 0.0
2018-Feb-16 09:30N 37°57' E 023°37'0 0.0
2018-Feb-16 09:00N 37°57' E 023°37'0 0.0
2018-Feb-16 08:30N 37°57' E 023°37'0 0.0
2018-Feb-16 07:59N 37°57' E 023°37'0 0.0
2018-Feb-16 07:29N 37°57' E 023°37'0 0.0
2018-Feb-16 07:00N 37°57' E 023°37'0 0.0
2018-Feb-16 06:30N 37°57' E 023°37'0 0.0
2018-Feb-16 06:00N 37°57' E 023°37'0 0.0
2018-Feb-16 05:30N 37°57' E 023°37'0 0.0
2018-Feb-16 05:00N 37°57' E 023°37'0 0.0
2018-Feb-16 04:30N 37°57' E 023°37'0 0.0
2018-Feb-16 04:00N 37°57' E 023°37'0 0.0
2018-Feb-16 03:30N 37°57' E 023°37'0 0.0
2018-Feb-16 03:00N 37°57' E 023°37'0 0.0
2018-Feb-16 02:30N 37°57' E 023°37'0 0.0
2018-Feb-16 02:00N 37°57' E 023°37'0 0.0
2018-Feb-16 01:30N 37°57' E 023°37'0 0.0
2018-Feb-16 01:00N 37°57' E 023°37'0 0.0
2018-Feb-16 00:30N 37°57' E 023°37'0 0.0
2018-Feb-15 23:59N 37°57' E 023°37'0 0.0
2018-Feb-15 23:30N 37°57' E 023°37'0 0.0
2018-Feb-15 23:00N 37°57' E 023°37'0 0.0
2018-Feb-15 22:30N 37°57' E 023°37'0 0.0
2018-Feb-15 22:00N 37°57' E 023°37'0 0.0
2018-Feb-15 21:30N 37°57' E 023°37'0 0.0
2018-Feb-15 20:58N 37°57' E 023°37'0 0.0
2018-Feb-15 20:30N 37°57' E 023°37'0 0.0
2018-Feb-15 20:00N 37°57' E 023°37'0 0.0
2018-Feb-15 19:29N 37°57' E 023°37'0 0.0
2018-Feb-15 19:00N 37°57' E 023°37'0 0.0
2018-Feb-15 18:30N 37°57' E 023°37'0 0.0
2018-Feb-15 18:00N 37°57' E 023°37'0 0.0
2018-Feb-15 17:30N 37°57' E 023°37'0 0.0
2018-Feb-15 17:00N 37°57' E 023°37'0 0.0
2018-Feb-15 16:30N 37°57' E 023°37'0 0.0
2018-Feb-15 16:00N 37°57' E 023°37'0 0.0
2018-Feb-15 15:30N 37°57' E 023°37'0 0.0
2018-Feb-15 15:00N 37°57' E 023°37'0 0.0
2018-Feb-15 14:30N 37°57' E 023°37'0 0.0
2018-Feb-15 14:00N 37°57' E 023°37'3 6.3
2018-Feb-15 13:30N 37°57' E 023°33'4 8.6
2018-Feb-15 13:00N 38°02' E 023°33'0 0.7
2018-Feb-15 12:30N 38°02' E 023°33'0 0.0
2018-Feb-15 12:00N 38°02' E 023°33'0 0.0
2018-Feb-15 11:30N 38°02' E 023°33'0 0.0
2018-Feb-15 11:00N 38°02' E 023°33'0 0.0
2018-Feb-15 10:30N 38°02' E 023°33'0 0.0
2018-Feb-15 10:00N 38°02' E 023°33'0 0.0
2018-Feb-15 09:31N 38°02' E 023°33'0 0.0
2018-Feb-15 09:00N 38°02' E 023°33'0 0.0
2018-Feb-15 08:30N 38°02' E 023°33'0 0.0
2018-Feb-15 08:00N 38°02' E 023°33'0 0.0
2018-Feb-15 07:30N 38°02' E 023°33'3 6.0
2018-Feb-15 07:00N 37°59' E 023°33'4 0.3
2018-Feb-14 15:30N 37°57' E 023°37'0 0.0
2018-Feb-14 15:00N 37°57' E 023°37'0 0.0
2018-Feb-14 14:29N 37°57' E 023°37'0 0.0
2018-Feb-14 14:00N 37°57' E 023°37'0 0.0
2018-Feb-14 13:30N 37°57' E 023°37'0 0.0
2018-Feb-14 13:00N 37°57' E 023°37'0 0.6
2018-Feb-14 12:30N 37°57' E 023°37'4 7.4
2018-Feb-14 12:00N 37°59' E 023°33'3 5.1
2018-Feb-14 11:30N 38°02' E 023°32'0 0.0
2018-Feb-14 11:00N 38°02' E 023°32'0 0.0
2018-Feb-14 10:30N 38°02' E 023°32'0 0.0
2018-Feb-14 10:00N 38°02' E 023°32'0 0.0
2018-Feb-14 09:30N 38°02' E 023°32'0 0.0
2018-Feb-14 09:00N 38°02' E 023°32'0 0.0
2018-Feb-14 08:30N 38°02' E 023°32'0 0.0
2018-Feb-14 08:00N 38°02' E 023°32'0 0.0
2018-Feb-14 07:30N 38°02' E 023°32'4 7.1
2018-Feb-14 07:00N 37°58' E 023°33'3 6.9
2018-Feb-14 06:30N 37°57' E 023°37'0 0.0
2018-Feb-14 06:00N 37°57' E 023°37'0 0.0
2018-Feb-14 05:30N 37°57' E 023°37'0 0.0
2018-Feb-14 05:00N 37°57' E 023°37'0 0.0
2018-Feb-14 04:30N 37°57' E 023°37'0 0.0
2018-Feb-14 04:00N 37°57' E 023°37'0 0.0
2018-Feb-14 03:30N 37°57' E 023°37'0 0.0
2018-Feb-14 03:00N 37°57' E 023°37'0 0.0
2018-Feb-14 02:30N 37°57' E 023°37'0 0.0
2018-Feb-14 02:00N 37°57' E 023°37'0 0.0
2018-Feb-14 01:30N 37°57' E 023°37'0 0.0
2018-Feb-14 01:00N 37°57' E 023°37'0 0.0
2018-Feb-14 00:30N 37°57' E 023°37'0 0.0
2018-Feb-14 00:00N 37°57' E 023°37'0 0.0
2018-Feb-13 23:30N 37°57' E 023°37'0 0.0
2018-Feb-13 23:00N 37°57' E 023°37'0 0.0
2018-Feb-13 22:30N 37°57' E 023°37'0 0.0
2018-Feb-13 22:00N 37°57' E 023°37'0 0.0
2018-Feb-13 21:29N 37°57' E 023°37'0 0.0
2018-Feb-13 21:00N 37°57' E 023°37'0 0.0
2018-Feb-13 20:29N 37°57' E 023°37'0 0.0
2018-Feb-13 20:00N 37°57' E 023°37'0 0.0
2018-Feb-13 19:30N 37°57' E 023°37'0 0.0
2018-Feb-13 19:00N 37°57' E 023°37'0 0.0
2018-Feb-13 18:30N 37°57' E 023°37'0 0.0
2018-Feb-13 17:59N 37°57' E 023°37'0 0.0
2018-Feb-13 17:30N 37°57' E 023°37'0 0.0
2018-Feb-13 17:00N 37°57' E 023°37'0 0.0
2018-Feb-13 16:30N 37°57' E 023°37'0 0.0
2018-Feb-13 16:00N 37°57' E 023°37'0 0.0
2018-Feb-13 15:30N 37°57' E 023°37'0 0.0
2018-Feb-13 15:00N 37°57' E 023°37'0 0.0
2018-Feb-13 14:30N 37°57' E 023°37'0 0.0
2018-Feb-13 13:59N 37°57' E 023°37'0 0.0
2018-Feb-13 13:30N 37°57' E 023°37'0 0.0
2018-Feb-13 13:00N 37°57' E 023°37'0 0.0
2018-Feb-13 12:28N 37°57' E 023°37'0 0.0
2018-Feb-13 12:00N 37°57' E 023°37'1 2.6
2018-Feb-13 11:30N 37°57' E 023°35'2 3.6
2018-Feb-13 11:00N 37°57' E 023°33'0 0.0
2018-Feb-13 10:30N 37°57' E 023°33'0 0.0
2018-Feb-13 10:00N 37°57' E 023°33'0 0.0
2018-Feb-13 09:30N 37°57' E 023°33'0 0.0
2018-Feb-13 09:00N 37°57' E 023°33'0 0.0
2018-Feb-13 08:30N 37°57' E 023°33'0 0.0
2018-Feb-13 08:00N 37°57' E 023°33'0 0.0
2018-Feb-13 07:30N 37°57' E 023°33'0 0.6
2018-Feb-13 07:00N 37°57' E 023°33'3 5.5
2018-Feb-13 06:30N 37°57' E 023°37'0 0.2
2018-Feb-13 06:00N 37°57' E 023°37'0 0.0
2018-Feb-13 05:30N 37°57' E 023°37'0 0.0
2018-Feb-13 05:00N 37°57' E 023°37'0 0.0
2018-Feb-13 04:30N 37°57' E 023°37'0 0.0
2018-Feb-13 04:00N 37°57' E 023°37'0 0.0
2018-Feb-13 03:30N 37°57' E 023°37'0 0.0
2018-Feb-13 03:00N 37°57' E 023°37'0 0.0
2018-Feb-13 02:29N 37°57' E 023°37'0 0.0
2018-Feb-13 02:00N 37°57' E 023°37'0 0.0
2018-Feb-13 01:30N 37°57' E 023°37'0 0.0
2018-Feb-13 01:00N 37°57' E 023°37'0 0.0
2018-Feb-13 00:30N 37°57' E 023°37'0 0.0
2018-Feb-13 00:00N 37°57' E 023°37'0 0.0
2018-Feb-12 23:30N 37°57' E 023°37'0 0.0
2018-Feb-12 23:00N 37°57' E 023°37'0 0.0
2018-Feb-12 22:30N 37°57' E 023°37'0 0.0
2018-Feb-12 22:00N 37°57' E 023°37'0 0.0
2018-Feb-12 21:28N 37°57' E 023°37'0 0.0
2018-Feb-12 21:00N 37°57' E 023°37'0 0.0
2018-Feb-12 20:30N 37°57' E 023°37'0 0.0
2018-Feb-12 20:00N 37°57' E 023°37'0 0.0
2018-Feb-12 19:30N 37°57' E 023°37'0 0.0
2018-Feb-12 19:00N 37°57' E 023°37'0 0.0
2018-Feb-12 18:30N 37°57' E 023°37'0 0.0
2018-Feb-12 18:00N 37°57' E 023°37'1 1.2
2018-Feb-12 17:30N 37°56' E 023°37'5 9.1
2018-Feb-12 17:00N 37°52' E 023°33'1 1.1
2018-Feb-12 16:30N 37°52' E 023°33'0 0.0
2018-Feb-12 16:00N 37°52' E 023°33'0 0.0
2018-Feb-12 15:30N 37°52' E 023°33'0 0.1
2018-Feb-12 15:00N 37°52' E 023°33'0 0.3
2018-Feb-12 14:30N 37°52' E 023°33'0 0.2
2018-Feb-12 14:00N 37°52' E 023°33'0 0.1
2018-Feb-12 13:30N 37°52' E 023°33'0 0.0
2018-Feb-12 13:00N 37°52' E 023°33'0 0.2
2018-Feb-12 12:30N 37°52' E 023°33'0 0.1
2018-Feb-12 12:00N 37°52' E 023°33'0 0.1
2018-Feb-12 11:30N 37°52' E 023°33'0 0.1
2018-Feb-12 11:00N 37°52' E 023°33'0 0.2
2018-Feb-12 10:30N 37°52' E 023°33'0 0.1
2018-Feb-12 10:00N 37°52' E 023°33'3 5.0
2018-Feb-12 09:30N 37°54' E 023°35'3 6.5
2018-Feb-12 09:00N 37°57' E 023°37'0 0.0
2018-Feb-12 08:30N 37°57' E 023°37'0 0.0
2018-Feb-12 08:00N 37°57' E 023°37'0 0.0
2018-Feb-12 07:30N 37°57' E 023°37'0 0.0
2018-Feb-12 07:00N 37°57' E 023°37'0 0.0
2018-Feb-12 06:30N 37°57' E 023°37'0 0.0
2018-Feb-12 06:00N 37°57' E 023°37'0 0.0
2018-Feb-12 05:30N 37°57' E 023°37'0 0.0
2018-Feb-12 05:00N 37°57' E 023°37'0 0.0
2018-Feb-12 04:30N 37°57' E 023°37'0 0.0
2018-Feb-12 04:00N 37°57' E 023°37'0 0.0
2018-Feb-12 03:29N 37°57' E 023°37'0 0.0
2018-Feb-12 03:00N 37°57' E 023°37'0 0.0
2018-Feb-12 02:30N 37°57' E 023°37'0 0.0
2018-Feb-12 02:00N 37°57' E 023°37'0 0.0
2018-Feb-12 01:30N 37°57' E 023°37'0 0.0
2018-Feb-12 01:00N 37°57' E 023°37'0 0.0
2018-Feb-12 00:30N 37°57' E 023°37'0 0.0
2018-Feb-11 23:59N 37°57' E 023°37'0 0.0
2018-Feb-11 23:30N 37°57' E 023°37'0 0.0
2018-Feb-11 23:00N 37°57' E 023°37'0 0.0
2018-Feb-11 22:30N 37°57' E 023°37'0 0.0
2018-Feb-11 22:00N 37°57' E 023°37'0 0.0
2018-Feb-11 21:30N 37°57' E 023°37'0 0.0
2018-Feb-11 21:00N 37°57' E 023°37'0 0.0
2018-Feb-11 20:30N 37°57' E 023°37'0 0.0
2018-Feb-11 20:00N 37°57' E 023°37'0 0.0
2018-Feb-11 19:29N 37°57' E 023°37'0 0.0
2018-Feb-11 19:00N 37°57' E 023°37'0 0.0
2018-Feb-11 18:30N 37°57' E 023°37'0 0.0
2018-Feb-11 18:00N 37°57' E 023°37'0 0.0
2018-Feb-11 17:29N 37°57' E 023°37'0 0.0
2018-Feb-11 17:00N 37°57' E 023°37'0 0.0
2018-Feb-11 16:30N 37°57' E 023°37'0 0.0
2018-Feb-11 16:00N 37°57' E 023°37'0 0.0
2018-Feb-11 15:30N 37°57' E 023°37'0 0.0
2018-Feb-11 15:00N 37°57' E 023°37'0 0.0
2018-Feb-11 14:30N 37°57' E 023°37'0 0.0
2018-Feb-11 14:00N 37°57' E 023°37'0 0.0
2018-Feb-11 13:30N 37°57' E 023°37'0 0.0
2018-Feb-11 13:00N 37°57' E 023°37'0 0.0
2018-Feb-11 12:30N 37°57' E 023°37'0 0.0
2018-Feb-11 12:00N 37°57' E 023°37'0 0.0
2018-Feb-11 11:30N 37°57' E 023°37'0 0.0
2018-Feb-11 10:59N 37°57' E 023°37'0 0.0
2018-Feb-11 10:30N 37°57' E 023°37'0 0.0
2018-Feb-11 10:00N 37°57' E 023°37'0 0.0
2018-Feb-11 09:30N 37°57' E 023°37'0 0.0
2018-Feb-11 09:00N 37°57' E 023°37'0 0.0
2018-Feb-11 08:30N 37°57' E 023°37'0 0.0
2018-Feb-11 08:00N 37°57' E 023°37'0 0.0
2018-Feb-11 07:30N 37°57' E 023°37'0 0.0
2018-Feb-11 07:00N 37°57' E 023°37'0 0.0
2018-Feb-11 06:30N 37°57' E 023°37'0 0.0
2018-Feb-11 05:59N 37°57' E 023°37'0 0.0
2018-Feb-11 05:30N 37°57' E 023°37'0 0.0
2018-Feb-11 04:59N 37°57' E 023°37'0 0.0
2018-Feb-11 04:30N 37°57' E 023°37'0 0.0
2018-Feb-11 04:00N 37°57' E 023°37'0 0.0
2018-Feb-11 03:28N 37°57' E 023°37'0 0.0
2018-Feb-11 03:00N 37°57' E 023°37'0 0.0
2018-Feb-11 02:30N 37°57' E 023°37'0 0.0
2018-Feb-11 02:00N 37°57' E 023°37'0 0.0
2018-Feb-11 01:30N 37°57' E 023°37'0 0.0
2018-Feb-11 01:00N 37°57' E 023°37'0 0.0
2018-Feb-11 00:30N 37°57' E 023°37'0 0.0
2018-Feb-11 00:00N 37°57' E 023°37'0 0.0
2018-Feb-10 23:30N 37°57' E 023°37'0 0.0
2018-Feb-10 23:00N 37°57' E 023°37'0 0.0
2018-Feb-10 22:30N 37°57' E 023°37'0 0.0
2018-Feb-10 22:00N 37°57' E 023°37'0 0.0
2018-Feb-10 21:30N 37°57' E 023°37'0 0.0
2018-Feb-10 21:00N 37°57' E 023°37'0 0.0
2018-Feb-10 20:30N 37°57' E 023°37'0 0.0
2018-Feb-10 20:00N 37°57' E 023°37'0 0.0
2018-Feb-10 19:30N 37°57' E 023°37'0 0.0
2018-Feb-10 19:00N 37°57' E 023°37'0 0.0
2018-Feb-10 18:30N 37°57' E 023°37'0 0.0
2018-Feb-10 18:00N 37°57' E 023°37'0 0.0
2018-Feb-10 17:30N 37°57' E 023°37'0 0.0
2018-Feb-10 17:00N 37°57' E 023°37'0 0.0
2018-Feb-10 16:30N 37°57' E 023°37'0 0.0
2018-Feb-10 16:00N 37°57' E 023°37'0 0.0
2018-Feb-10 15:30N 37°57' E 023°37'0 0.0
2018-Feb-10 15:00N 37°57' E 023°37'0 0.0
2018-Feb-10 14:30N 37°57' E 023°37'0 0.0
2018-Feb-10 14:00N 37°57' E 023°37'0 0.0
2018-Feb-10 13:30N 37°57' E 023°37'0 0.0
2018-Feb-10 13:00N 37°57' E 023°37'0 0.0
2018-Feb-10 12:30N 37°57' E 023°37'0 0.0
2018-Feb-10 11:58N 37°57' E 023°37'0 0.0
2018-Feb-10 11:30N 37°57' E 023°37'0 0.0
2018-Feb-10 11:00N 37°57' E 023°37'0 0.0
2018-Feb-10 10:30N 37°57' E 023°37'0 0.0
2018-Feb-10 10:00N 37°57' E 023°37'0 0.0
2018-Feb-10 09:30N 37°57' E 023°37'0 0.0
2018-Feb-10 09:00N 37°57' E 023°37'0 0.0
2018-Feb-10 08:30N 37°57' E 023°37'0 0.0
2018-Feb-10 08:00N 37°57' E 023°37'0 0.0
2018-Feb-10 07:30N 37°57' E 023°37'0 0.0
2018-Feb-10 07:00N 37°57' E 023°37'0 0.0
2018-Feb-10 06:30N 37°57' E 023°37'0 0.0
2018-Feb-10 06:00N 37°57' E 023°37'0 0.0
2018-Feb-10 05:30N 37°57' E 023°37'0 0.0
2018-Feb-10 05:00N 37°57' E 023°37'0 0.0
2018-Feb-10 04:30N 37°57' E 023°37'0 0.0
2018-Feb-10 04:00N 37°57' E 023°37'0 0.0
2018-Feb-10 03:30N 37°57' E 023°37'0 0.0
2018-Feb-10 03:00N 37°57' E 023°37'0 0.0
2018-Feb-10 02:30N 37°57' E 023°37'0 0.0
2018-Feb-10 02:00N 37°57' E 023°37'0 0.0
2018-Feb-10 01:30N 37°57' E 023°37'0 0.0
2018-Feb-10 01:00N 37°57' E 023°37'0 0.0
2018-Feb-10 00:30N 37°57' E 023°37'0 0.0
2018-Feb-10 00:00N 37°57' E 023°37'0 0.0
2018-Feb-09 23:30N 37°57' E 023°37'0 0.0
2018-Feb-09 23:00N 37°57' E 023°37'0 0.0
2018-Feb-09 22:46N 37°57' E 023°37'0 0.0
2018-Feb-09 20:30N 37°57' E 023°37'0 0.0
2018-Feb-09 19:00N 37°57' E 023°37'0 0.0
2018-Feb-09 17:30N 37°57' E 023°37'0 0.0
2018-Feb-09 17:00N 37°57' E 023°37'0 0.0
2018-Feb-09 16:30N 37°57' E 023°37'0 0.0
2018-Feb-09 16:00N 37°57' E 023°37'0 0.0
2018-Feb-09 15:00N 37°57' E 023°37'0 0.3
2018-Feb-09 14:30N 37°57' E 023°37'2 1.6
2018-Feb-09 13:00N 37°57' E 023°34'4 7.9
2018-Feb-09 12:30N 38°01' E 023°32'1 1.0
2018-Feb-09 12:00N 38°01' E 023°31'0 0.0
2018-Feb-09 11:00N 38°01' E 023°31'5 2.3
2018-Feb-09 09:00N 37°57' E 023°34'2 2.0
2018-Feb-09 08:00N 37°57' E 023°37'0 0.0
2018-Feb-09 07:30N 37°57' E 023°37'0 0.0
2018-Feb-09 07:00N 37°57' E 023°37'0 0.0
2018-Feb-09 06:30N 37°57' E 023°37'0 0.1
2018-Feb-09 05:00N 37°57' E 023°37'0 0.0
2018-Feb-09 04:30N 37°57' E 023°37'0 0.0
2018-Feb-09 04:00N 37°57' E 023°37'0 0.0
2018-Feb-09 02:30N 37°57' E 023°37'0 0.0
2018-Feb-09 01:30N 37°57' E 023°37'0 0.0
2018-Feb-09 00:30N 37°57' E 023°37'0 0.0
2018-Feb-09 00:00N 37°57' E 023°37'0 0.0
2018-Feb-08 23:00N 37°57' E 023°37'0 0.0
2018-Feb-08 22:30N 37°57' E 023°37'0 0.0
2018-Feb-08 21:30N 37°57' E 023°37'0 0.0
2018-Feb-08 20:30N 37°57' E 023°37'0 0.0
2018-Feb-08 19:30N 37°57' E 023°37'0 0.0
2018-Feb-08 19:00N 37°57' E 023°37'0 0.0
2018-Feb-08 18:30N 37°57' E 023°37'0 0.0
2018-Feb-08 18:00N 37°57' E 023°37'0 0.0
2018-Feb-08 17:30N 37°57' E 023°37'0 0.0
2018-Feb-08 17:00N 37°57' E 023°37'0 0.0
2018-Feb-08 16:30N 37°57' E 023°37'0 0.0
2018-Feb-08 16:00N 37°57' E 023°37'0 0.0
2018-Feb-08 15:30N 37°57' E 023°37'0 0.0
2018-Feb-08 14:30N 37°57' E 023°37'0 0.0
2018-Feb-08 13:30N 37°57' E 023°37'0 0.0
2018-Feb-08 12:30N 37°57' E 023°37'0 0.0
2018-Feb-08 12:00N 37°57' E 023°37'1 1.9
2018-Feb-08 11:30N 37°57' E 023°36'0 0.2
2018-Feb-08 11:00N 37°57' E 023°36'0 0.0
2018-Feb-08 10:30N 37°57' E 023°36'0 0.0
2018-Feb-08 10:00N 37°57' E 023°36'0 0.0
2018-Feb-08 09:30N 37°57' E 023°36'0 0.0
2018-Feb-08 09:00N 37°57' E 023°36'0 0.0
2018-Feb-08 07:30N 37°57' E 023°36'0 0.4
2018-Feb-08 07:00N 37°57' E 023°36'1 0.9
2018-Feb-08 06:00N 37°57' E 023°37'0 0.0
2018-Feb-08 05:30N 37°57' E 023°37'0 0.0
2018-Feb-08 05:00N 37°57' E 023°37'0 0.0
2018-Feb-08 04:30N 37°57' E 023°37'0 0.0
2018-Feb-08 03:30N 37°57' E 023°37'0 0.0
2018-Feb-08 03:00N 37°57' E 023°37'0 0.0
2018-Feb-08 01:30N 37°57' E 023°37'0 0.0
2018-Feb-08 01:00N 37°57' E 023°37'0 0.0
2018-Feb-08 00:30N 37°57' E 023°37'0 0.0
2018-Feb-08 00:00N 37°57' E 023°37'0 0.0
2018-Feb-07 23:30N 37°57' E 023°37'  
Track history (hours):
 
Tides and Currents Weather Stations Pressure Air Temp Water Temp Dewpoint Dewpoint Depression Visibility Wind Speed Wind Dir Waves Ship Positions

Ecospiritp

Last reported at 2018-Feb-17 23:29 UTC. Time now 2018-Feb-17 23:55 UTC.
Position N 37°57' E 023°37'.

Length 69 m; draft 1 m.

Type: Tanker. MMSI: 239864200.

Date/timePositionNaut miles runAvg speedWind from/ knotsBaromVisibWave heightAir tempDewpointWater temp
2018-Feb-17 23:29N 37°57' E 023°37'0 0.0
2018-Feb-17 23:00N 37°57' E 023°37'0 0.0
2018-Feb-17 22:30N 37°57' E 023°37'0 0.0
2018-Feb-17 22:00N 37°57' E 023°37'0 0.0
2018-Feb-17 21:30N 37°57' E 023°37'0 0.0
2018-Feb-17 21:00N 37°57' E 023°37'0 0.0
2018-Feb-17 20:29N 37°57' E 023°37'0 0.0
2018-Feb-17 20:00N 37°57' E 023°37'0 0.0
2018-Feb-17 19:30N 37°57' E 023°37'0 0.0
2018-Feb-17 19:00N 37°57' E 023°37'0 0.0
2018-Feb-17 18:29N 37°57' E 023°37'0 0.0
2018-Feb-17 18:00N 37°57' E 023°37'0 0.0
2018-Feb-17 17:30N 37°57' E 023°37'0 0.0
2018-Feb-17 17:00N 37°57' E 023°37'0 0.0
2018-Feb-17 16:30N 37°57' E 023°37'0 0.0
2018-Feb-17 16:00N 37°57' E 023°37'0 0.0
2018-Feb-17 15:30N 37°57' E 023°37'0 0.0
2018-Feb-17 15:00N 37°57' E 023°37'0 0.0
2018-Feb-17 14:30N 37°57' E 023°37'0 0.0
2018-Feb-17 14:00N 37°57' E 023°37'0 0.0
2018-Feb-17 13:30N 37°57' E 023°37'0 0.0
2018-Feb-17 13:00N 37°57' E 023°37'0 0.0
2018-Feb-17 12:30N 37°57' E 023°37'0 0.0
2018-Feb-17 12:00N 37°57' E 023°37'0 0.0
2018-Feb-17 11:30N 37°57' E 023°37'0 0.0
2018-Feb-17 11:00N 37°57' E 023°37'0 0.0
2018-Feb-17 10:30N 37°57' E 023°37'0 0.0
2018-Feb-17 10:00N 37°57' E 023°37'0 0.0
2018-Feb-17 09:30N 37°57' E 023°37'0 0.0
2018-Feb-17 08:59N 37°57' E 023°37'0 0.0
2018-Feb-17 08:30N 37°57' E 023°37'0 0.0
2018-Feb-17 08:00N 37°57' E 023°37'0 0.0
2018-Feb-17 07:30N 37°57' E 023°37'0 0.0
2018-Feb-17 07:00N 37°57' E 023°37'0 0.0
2018-Feb-17 06:30N 37°57' E 023°37'0 0.0
2018-Feb-17 06:00N 37°57' E 023°37'0 0.0
2018-Feb-17 05:30N 37°57' E 023°37'0 0.0
2018-Feb-17 05:00N 37°57' E 023°37'0 0.0
2018-Feb-17 04:30N 37°57' E 023°37'0 0.0
2018-Feb-17 04:00N 37°57' E 023°37'0 0.0
2018-Feb-17 03:30N 37°57' E 023°37'0 0.0
2018-Feb-17 03:00N 37°57' E 023°37'0 0.0
2018-Feb-17 02:30N 37°57' E 023°37'0 0.0
2018-Feb-17 02:00N 37°57' E 023°37'0 0.0
2018-Feb-17 01:30N 37°57' E 023°37'0 0.0
2018-Feb-17 01:00N 37°57' E 023°37'0 0.0
2018-Feb-17 00:30N 37°57' E 023°37'0 0.0
2018-Feb-17 00:00N 37°57' E 023°37'0 0.0
2018-Feb-16 23:30N 37°57' E 023°37'0 0.0
2018-Feb-16 23:00N 37°57' E 023°37'0 0.0
2018-Feb-16 22:30N 37°57' E 023°37'0 0.0
2018-Feb-16 22:00N 37°57' E 023°37'0 0.0
2018-Feb-16 21:29N 37°57' E 023°37'0 0.0
2018-Feb-16 21:00N 37°57' E 023°37'0 0.0
2018-Feb-16 20:30N 37°57' E 023°37'0 0.0
2018-Feb-16 20:00N 37°57' E 023°37'0 0.0
2018-Feb-16 19:30N 37°57' E 023°37'0 0.0
2018-Feb-16 19:00N 37°57' E 023°37'0 0.0
2018-Feb-16 18:30N 37°57' E 023°37'0 0.0
2018-Feb-16 18:00N 37°57' E 023°37'0 0.0
2018-Feb-16 17:30N 37°57' E 023°37'0 0.0
2018-Feb-16 16:59N 37°57' E 023°37'0 0.0
2018-Feb-16 16:30N 37°57' E 023°37'2 3.4
2018-Feb-16 16:00N 37°57' E 023°35'4 8.2
2018-Feb-16 15:30N 38°01' E 023°33'0 0.8
2018-Feb-16 15:00N 38°01' E 023°32'0 0.1
2018-Feb-16 14:30N 38°01' E 023°32'4 7.3
2018-Feb-16 14:00N 37°57' E 023°33'3 5.8
2018-Feb-16 13:30N 37°57' E 023°37'0 0.5
2018-Feb-16 13:00N 37°57' E 023°37'0 0.0
2018-Feb-16 12:30N 37°57' E 023°37'0 0.3
2018-Feb-16 12:00N 37°57' E 023°37'0 0.0
2018-Feb-16 11:30N 37°57' E 023°37'0 0.0
2018-Feb-16 11:00N 37°57' E 023°37'0 0.0
2018-Feb-16 10:30N 37°57' E 023°37'0 0.0
2018-Feb-16 10:00N 37°57' E 023°37'0 0.0
2018-Feb-16 09:30N 37°57' E 023°37'0 0.0
2018-Feb-16 09:00N 37°57' E 023°37'0 0.0
2018-Feb-16 08:30N 37°57' E 023°37'0 0.0
2018-Feb-16 07:59N 37°57' E 023°37'0 0.0
2018-Feb-16 07:29N 37°57' E 023°37'0 0.0
2018-Feb-16 07:00N 37°57' E 023°37'0 0.0
2018-Feb-16 06:30N 37°57' E 023°37'0 0.0
2018-Feb-16 06:00N 37°57' E 023°37'0 0.0
2018-Feb-16 05:30N 37°57' E 023°37'0 0.0
2018-Feb-16 05:00N 37°57' E 023°37'0 0.0
2018-Feb-16 04:30N 37°57' E 023°37'0 0.0
2018-Feb-16 04:00N 37°57' E 023°37'0 0.0
2018-Feb-16 03:30N 37°57' E 023°37'0 0.0
2018-Feb-16 03:00N 37°57' E 023°37'0 0.0
2018-Feb-16 02:30N 37°57' E 023°37'0 0.0
2018-Feb-16 02:00N 37°57' E 023°37'0 0.0
2018-Feb-16 01:30N 37°57' E 023°37'0 0.0
2018-Feb-16 01:00N 37°57' E 023°37'0 0.0
2018-Feb-16 00:30N 37°57' E 023°37'0 0.0
2018-Feb-15 23:59N 37°57' E 023°37'0 0.0
2018-Feb-15 23:30N 37°57' E 023°37'0 0.0
2018-Feb-15 23:00N 37°57' E 023°37'0 0.0
2018-Feb-15 22:30N 37°57' E 023°37'0 0.0
2018-Feb-15 22:00N 37°57' E 023°37'0 0.0
2018-Feb-15 21:30N 37°57' E 023°37'0 0.0
2018-Feb-15 20:58N 37°57' E 023°37'0 0.0
2018-Feb-15 20:30N 37°57' E 023°37'0 0.0
2018-Feb-15 20:00N 37°57' E 023°37'0 0.0
2018-Feb-15 19:29N 37°57' E 023°37'0 0.0
2018-Feb-15 19:00N 37°57' E 023°37'0 0.0
2018-Feb-15 18:30N 37°57' E 023°37'0 0.0
2018-Feb-15 18:00N 37°57' E 023°37'0 0.0
2018-Feb-15 17:30N 37°57' E 023°37'0 0.0
2018-Feb-15 17:00N 37°57' E 023°37'0 0.0
2018-Feb-15 16:30N 37°57' E 023°37'0 0.0
2018-Feb-15 16:00N 37°57' E 023°37'0 0.0
2018-Feb-15 15:30N 37°57' E 023°37'0 0.0
2018-Feb-15 15:00N 37°57' E 023°37'0 0.0
2018-Feb-15 14:30N 37°57' E 023°37'0 0.0
2018-Feb-15 14:00N 37°57' E 023°37'3 6.3
2018-Feb-15 13:30N 37°57' E 023°33'4 8.6
2018-Feb-15 13:00N 38°02' E 023°33'0 0.7
2018-Feb-15 12:30N 38°02' E 023°33'0 0.0
2018-Feb-15 12:00N 38°02' E 023°33'0 0.0
2018-Feb-15 11:30N 38°02' E 023°33'0 0.0
2018-Feb-15 11:00N 38°02' E 023°33'0 0.0
2018-Feb-15 10:30N 38°02' E 023°33'0 0.0
2018-Feb-15 10:00N 38°02' E 023°33'0 0.0
2018-Feb-15 09:31N 38°02' E 023°33'0 0.0
2018-Feb-15 09:00N 38°02' E 023°33'0 0.0
2018-Feb-15 08:30N 38°02' E 023°33'0 0.0
2018-Feb-15 08:00N 38°02' E 023°33'0 0.0
2018-Feb-15 07:30N 38°02' E 023°33'3 6.0
2018-Feb-15 07:00N 37°59' E 023°33'4 0.3
2018-Feb-14 15:30N 37°57' E 023°37'0 0.0
2018-Feb-14 15:00N 37°57' E 023°37'0 0.0
2018-Feb-14 14:29N 37°57' E 023°37'0 0.0
2018-Feb-14 14:00N 37°57' E 023°37'0 0.0
2018-Feb-14 13:30N 37°57' E 023°37'0 0.0
2018-Feb-14 13:00N 37°57' E 023°37'0 0.6
2018-Feb-14 12:30N 37°57' E 023°37'4 7.4
2018-Feb-14 12:00N 37°59' E 023°33'3 5.1
2018-Feb-14 11:30N 38°02' E 023°32'0 0.0
2018-Feb-14 11:00N 38°02' E 023°32'0 0.0
2018-Feb-14 10:30N 38°02' E 023°32'0 0.0
2018-Feb-14 10:00N 38°02' E 023°32'0 0.0
2018-Feb-14 09:30N 38°02' E 023°32'0 0.0
2018-Feb-14 09:00N 38°02' E 023°32'0 0.0
2018-Feb-14 08:30N 38°02' E 023°32'0 0.0
2018-Feb-14 08:00N 38°02' E 023°32'0 0.0
2018-Feb-14 07:30N 38°02' E 023°32'4 7.1
2018-Feb-14 07:00N 37°58' E 023°33'3 6.9
2018-Feb-14 06:30N 37°57' E 023°37'0 0.0
2018-Feb-14 06:00N 37°57' E 023°37'0 0.0
2018-Feb-14 05:30N 37°57' E 023°37'0 0.0
2018-Feb-14 05:00N 37°57' E 023°37'0 0.0
2018-Feb-14 04:30N 37°57' E 023°37'0 0.0
2018-Feb-14 04:00N 37°57' E 023°37'0 0.0
2018-Feb-14 03:30N 37°57' E 023°37'0 0.0
2018-Feb-14 03:00N 37°57' E 023°37'0 0.0
2018-Feb-14 02:30N 37°57' E 023°37'0 0.0
2018-Feb-14 02:00N 37°57' E 023°37'0 0.0
2018-Feb-14 01:30N 37°57' E 023°37'0 0.0
2018-Feb-14 01:00N 37°57' E 023°37'0 0.0
2018-Feb-14 00:30N 37°57' E 023°37'0 0.0
2018-Feb-14 00:00N 37°57' E 023°37'0 0.0
2018-Feb-13 23:30N 37°57' E 023°37'0 0.0
2018-Feb-13 23:00N 37°57' E 023°37'0 0.0
2018-Feb-13 22:30N 37°57' E 023°37'0 0.0
2018-Feb-13 22:00N 37°57' E 023°37'0 0.0
2018-Feb-13 21:29N 37°57' E 023°37'0 0.0
2018-Feb-13 21:00N 37°57' E 023°37'0 0.0
2018-Feb-13 20:29N 37°57' E 023°37'0 0.0
2018-Feb-13 20:00N 37°57' E 023°37'0 0.0
2018-Feb-13 19:30N 37°57' E 023°37'0 0.0
2018-Feb-13 19:00N 37°57' E 023°37'0 0.0
2018-Feb-13 18:30N 37°57' E 023°37'0 0.0
2018-Feb-13 17:59N 37°57' E 023°37'0 0.0
2018-Feb-13 17:30N 37°57' E 023°37'0 0.0
2018-Feb-13 17:00N 37°57' E 023°37'0 0.0
2018-Feb-13 16:30N 37°57' E 023°37'0 0.0
2018-Feb-13 16:00N 37°57' E 023°37'0 0.0
2018-Feb-13 15:30N 37°57' E 023°37'0 0.0
2018-Feb-13 15:00N 37°57' E 023°37'0 0.0
2018-Feb-13 14:30N 37°57' E 023°37'0 0.0
2018-Feb-13 13:59N 37°57' E 023°37'0 0.0
2018-Feb-13 13:30N 37°57' E 023°37'0 0.0
2018-Feb-13 13:00N 37°57' E 023°37'0 0.0
2018-Feb-13 12:28N 37°57' E 023°37'0 0.0
2018-Feb-13 12:00N 37°57' E 023°37'1 2.6
2018-Feb-13 11:30N 37°57' E 023°35'2 3.6
2018-Feb-13 11:00N 37°57' E 023°33'0 0.0
2018-Feb-13 10:30N 37°57' E 023°33'0 0.0
2018-Feb-13 10:00N 37°57' E 023°33'0 0.0
2018-Feb-13 09:30N 37°57' E 023°33'0 0.0
2018-Feb-13 09:00N 37°57' E 023°33'0 0.0
2018-Feb-13 08:30N 37°57' E 023°33'0 0.0
2018-Feb-13 08:00N 37°57' E 023°33'0 0.0
2018-Feb-13 07:30N 37°57' E 023°33'0 0.6
2018-Feb-13 07:00N 37°57' E 023°33'3 5.5
2018-Feb-13 06:30N 37°57' E 023°37'0 0.2
2018-Feb-13 06:00N 37°57' E 023°37'0 0.0
2018-Feb-13 05:30N 37°57' E 023°37'0 0.0
2018-Feb-13 05:00N 37°57' E 023°37'0 0.0
2018-Feb-13 04:30N 37°57' E 023°37'0 0.0
2018-Feb-13 04:00N 37°57' E 023°37'0 0.0
2018-Feb-13 03:30N 37°57' E 023°37'0 0.0
2018-Feb-13 03:00N 37°57' E 023°37'0 0.0
2018-Feb-13 02:29N 37°57' E 023°37'0 0.0
2018-Feb-13 02:00N 37°57' E 023°37'0 0.0
2018-Feb-13 01:30N 37°57' E 023°37'0 0.0
2018-Feb-13 01:00N 37°57' E 023°37'0 0.0
2018-Feb-13 00:30N 37°57' E 023°37'0 0.0
2018-Feb-13 00:00N 37°57' E 023°37'0 0.0
2018-Feb-12 23:30N 37°57' E 023°37'0 0.0
2018-Feb-12 23:00N 37°57' E 023°37'0 0.0
2018-Feb-12 22:30N 37°57' E 023°37'0 0.0
2018-Feb-12 22:00N 37°57' E 023°37'0 0.0
2018-Feb-12 21:28N 37°57' E 023°37'0 0.0
2018-Feb-12 21:00N 37°57' E 023°37'0 0.0
2018-Feb-12 20:30N 37°57' E 023°37'0 0.0
2018-Feb-12 20:00N 37°57' E 023°37'0 0.0
2018-Feb-12 19:30N 37°57' E 023°37'0 0.0
2018-Feb-12 19:00N 37°57' E 023°37'0 0.0
2018-Feb-12 18:30N 37°57' E 023°37'0 0.0
2018-Feb-12 18:00N 37°57' E 023°37'1 1.2
2018-Feb-12 17:30N 37°56' E 023°37'5 9.1
2018-Feb-12 17:00N 37°52' E 023°33'1 1.1
2018-Feb-12 16:30N 37°52' E 023°33'0 0.0
2018-Feb-12 16:00N 37°52' E 023°33'0 0.0
2018-Feb-12 15:30N 37°52' E 023°33'0 0.1
2018-Feb-12 15:00N 37°52' E 023°33'0 0.3
2018-Feb-12 14:30N 37°52' E 023°33'0 0.2
2018-Feb-12 14:00N 37°52' E 023°33'0 0.1
2018-Feb-12 13:30N 37°52' E 023°33'0 0.0
2018-Feb-12 13:00N 37°52' E 023°33'0 0.2
2018-Feb-12 12:30N 37°52' E 023°33'0 0.1
2018-Feb-12 12:00N 37°52' E 023°33'0 0.1
2018-Feb-12 11:30N 37°52' E 023°33'0 0.1
2018-Feb-12 11:00N 37°52' E 023°33'0 0.2
2018-Feb-12 10:30N 37°52' E 023°33'0 0.1
2018-Feb-12 10:00N 37°52' E 023°33'3 5.0
2018-Feb-12 09:30N 37°54' E 023°35'3 6.5
2018-Feb-12 09:00N 37°57' E 023°37'0 0.0
2018-Feb-12 08:30N 37°57' E 023°37'0 0.0
2018-Feb-12 08:00N 37°57' E 023°37'0 0.0
2018-Feb-12 07:30N 37°57' E 023°37'0 0.0
2018-Feb-12 07:00N 37°57' E 023°37'0 0.0
2018-Feb-12 06:30N 37°57' E 023°37'0 0.0
2018-Feb-12 06:00N 37°57' E 023°37'0 0.0
2018-Feb-12 05:30N 37°57' E 023°37'0 0.0
2018-Feb-12 05:00N 37°57' E 023°37'0 0.0
2018-Feb-12 04:30N 37°57' E 023°37'0 0.0
2018-Feb-12 04:00N 37°57' E 023°37'0 0.0
2018-Feb-12 03:29N 37°57' E 023°37'0 0.0
2018-Feb-12 03:00N 37°57' E 023°37'0 0.0
2018-Feb-12 02:30N 37°57' E 023°37'0 0.0
2018-Feb-12 02:00N 37°57' E 023°37'0 0.0
2018-Feb-12 01:30N 37°57' E 023°37'0 0.0
2018-Feb-12 01:00N 37°57' E 023°37'0 0.0
2018-Feb-12 00:30N 37°57' E 023°37'0 0.0
2018-Feb-11 23:59N 37°57' E 023°37'0 0.0
2018-Feb-11 23:30N 37°57' E 023°37'0 0.0
2018-Feb-11 23:00N 37°57' E 023°37'0 0.0
2018-Feb-11 22:30N 37°57' E 023°37'0 0.0
2018-Feb-11 22:00N 37°57' E 023°37'0 0.0
2018-Feb-11 21:30N 37°57' E 023°37'0 0.0
2018-Feb-11 21:00N 37°57' E 023°37'0 0.0
2018-Feb-11 20:30N 37°57' E 023°37'0 0.0
2018-Feb-11 20:00N 37°57' E 023°37'0 0.0
2018-Feb-11 19:29N 37°57' E 023°37'0 0.0
2018-Feb-11 19:00N 37°57' E 023°37'0 0.0
2018-Feb-11 18:30N 37°57' E 023°37'0 0.0
2018-Feb-11 18:00N 37°57' E 023°37'0 0.0
2018-Feb-11 17:29N 37°57' E 023°37'0 0.0
2018-Feb-11 17:00N 37°57' E 023°37'0 0.0
2018-Feb-11 16:30N 37°57' E 023°37'0 0.0
2018-Feb-11 16:00N 37°57' E 023°37'0 0.0
2018-Feb-11 15:30N 37°57' E 023°37'0 0.0
2018-Feb-11 15:00N 37°57' E 023°37'0 0.0
2018-Feb-11 14:30N 37°57' E 023°37'0 0.0
2018-Feb-11 14:00N 37°57' E 023°37'0 0.0
2018-Feb-11 13:30N 37°57' E 023°37'0 0.0
2018-Feb-11 13:00N 37°57' E 023°37'0 0.0
2018-Feb-11 12:30N 37°57' E 023°37'0 0.0
2018-Feb-11 12:00N 37°57' E 023°37'0 0.0
2018-Feb-11 11:30N 37°57' E 023°37'0 0.0
2018-Feb-11 10:59N 37°57' E 023°37'0 0.0
2018-Feb-11 10:30N 37°57' E 023°37'0 0.0
2018-Feb-11 10:00N 37°57' E 023°37'0 0.0
2018-Feb-11 09:30N 37°57' E 023°37'0 0.0
2018-Feb-11 09:00N 37°57' E 023°37'0 0.0
2018-Feb-11 08:30N 37°57' E 023°37'0 0.0
2018-Feb-11 08:00N 37°57' E 023°37'0 0.0
2018-Feb-11 07:30N 37°57' E 023°37'0 0.0
2018-Feb-11 07:00N 37°57' E 023°37'0 0.0
2018-Feb-11 06:30N 37°57' E 023°37'0 0.0
2018-Feb-11 05:59N 37°57' E 023°37'0 0.0
2018-Feb-11 05:30N 37°57' E 023°37'0 0.0
2018-Feb-11 04:59N 37°57' E 023°37'0 0.0
2018-Feb-11 04:30N 37°57' E 023°37'0 0.0
2018-Feb-11 04:00N 37°57' E 023°37'0 0.0
2018-Feb-11 03:28N 37°57' E 023°37'0 0.0
2018-Feb-11 03:00N 37°57' E 023°37'0 0.0
2018-Feb-11 02:30N 37°57' E 023°37'0 0.0
2018-Feb-11 02:00N 37°57' E 023°37'0 0.0
2018-Feb-11 01:30N 37°57' E 023°37'0 0.0
2018-Feb-11 01:00N 37°57' E 023°37'0 0.0
2018-Feb-11 00:30N 37°57' E 023°37'0 0.0
2018-Feb-11 00:00N 37°57' E 023°37'0 0.0
2018-Feb-10 23:30N 37°57' E 023°37'0 0.0
2018-Feb-10 23:00N 37°57' E 023°37'0 0.0
2018-Feb-10 22:30N 37°57' E 023°37'0 0.0
2018-Feb-10 22:00N 37°57' E 023°37'0 0.0
2018-Feb-10 21:30N 37°57' E 023°37'0 0.0
2018-Feb-10 21:00N 37°57' E 023°37'0 0.0
2018-Feb-10 20:30N 37°57' E 023°37'0 0.0
2018-Feb-10 20:00N 37°57' E 023°37'0 0.0
2018-Feb-10 19:30N 37°57' E 023°37'0 0.0
2018-Feb-10 19:00N 37°57' E 023°37'0 0.0
2018-Feb-10 18:30N 37°57' E 023°37'0 0.0
2018-Feb-10 18:00N 37°57' E 023°37'0 0.0
2018-Feb-10 17:30N 37°57' E 023°37'0 0.0
2018-Feb-10 17:00N 37°57' E 023°37'0 0.0
2018-Feb-10 16:30N 37°57' E 023°37'0 0.0
2018-Feb-10 16:00N 37°57' E 023°37'0 0.0
2018-Feb-10 15:30N 37°57' E 023°37'0 0.0
2018-Feb-10 15:00N 37°57' E 023°37'0 0.0
2018-Feb-10 14:30N 37°57' E 023°37'0 0.0
2018-Feb-10 14:00N 37°57' E 023°37'0 0.0
2018-Feb-10 13:30N 37°57' E 023°37'0 0.0
2018-Feb-10 13:00N 37°57' E 023°37'0 0.0
2018-Feb-10 12:30N 37°57' E 023°37'0 0.0
2018-Feb-10 11:58N 37°57' E 023°37'0 0.0
2018-Feb-10 11:30N 37°57' E 023°37'0 0.0
2018-Feb-10 11:00N 37°57' E 023°37'0 0.0
2018-Feb-10 10:30N 37°57' E 023°37'0 0.0
2018-Feb-10 10:00N 37°57' E 023°37'0 0.0
2018-Feb-10 09:30N 37°57' E 023°37'0 0.0
2018-Feb-10 09:00N 37°57' E 023°37'0 0.0
2018-Feb-10 08:30N 37°57' E 023°37'0 0.0
2018-Feb-10 08:00N 37°57' E 023°37'0 0.0
2018-Feb-10 07:30N 37°57' E 023°37'0 0.0
2018-Feb-10 07:00N 37°57' E 023°37'0 0.0
2018-Feb-10 06:30N 37°57' E 023°37'0 0.0
2018-Feb-10 06:00N 37°57' E 023°37'0 0.0
2018-Feb-10 05:30N 37°57' E 023°37'0 0.0
2018-Feb-10 05:00N 37°57' E 023°37'0 0.0
2018-Feb-10 04:30N 37°57' E 023°37'0 0.0
2018-Feb-10 04:00N 37°57' E 023°37'0 0.0
2018-Feb-10 03:30N 37°57' E 023°37'0 0.0
2018-Feb-10 03:00N 37°57' E 023°37'0 0.0
2018-Feb-10 02:30N 37°57' E 023°37'0 0.0
2018-Feb-10 02:00N 37°57' E 023°37'0 0.0
2018-Feb-10 01:30N 37°57' E 023°37'0 0.0
2018-Feb-10 01:00N 37°57' E 023°37'0 0.0
2018-Feb-10 00:30N 37°57' E 023°37'0 0.0
2018-Feb-10 00:00N 37°57' E 023°37'0 0.0
2018-Feb-09 23:30N 37°57' E 023°37'0 0.0
2018-Feb-09 23:00N 37°57' E 023°37'0 0.0
2018-Feb-09 22:46N 37°57' E 023°37'0 0.0
2018-Feb-09 20:30N 37°57' E 023°37'0 0.0
2018-Feb-09 19:00N 37°57' E 023°37'0 0.0
2018-Feb-09 17:30N 37°57' E 023°37'0 0.0
2018-Feb-09 17:00N 37°57' E 023°37'0 0.0
2018-Feb-09 16:30N 37°57' E 023°37'0 0.0
2018-Feb-09 16:00N 37°57' E 023°37'0 0.0
2018-Feb-09 15:00N 37°57' E 023°37'0 0.3
2018-Feb-09 14:30N 37°57' E 023°37'2 1.6
2018-Feb-09 13:00N 37°57' E 023°34'4 7.9
2018-Feb-09 12:30N 38°01' E 023°32'1 1.0
2018-Feb-09 12:00N 38°01' E 023°31'0 0.0
2018-Feb-09 11:00N 38°01' E 023°31'5 2.3
2018-Feb-09 09:00N 37°57' E 023°34'2 2.0
2018-Feb-09 08:00N 37°57' E 023°37'0 0.0
2018-Feb-09 07:30N 37°57' E 023°37'0 0.0
2018-Feb-09 07:00N 37°57' E 023°37'0 0.0
2018-Feb-09 06:30N 37°57' E 023°37'0 0.1
2018-Feb-09 05:00N 37°57' E 023°37'0 0.0
2018-Feb-09 04:30N 37°57' E 023°37'0 0.0
2018-Feb-09 04:00N 37°57' E 023°37'0 0.0
2018-Feb-09 02:30N 37°57' E 023°37'0 0.0
2018-Feb-09 01:30N 37°57' E 023°37'0 0.0
2018-Feb-09 00:30N 37°57' E 023°37'0 0.0
2018-Feb-09 00:00N 37°57' E 023°37'0 0.0
2018-Feb-08 23:00N 37°57' E 023°37'0 0.0
2018-Feb-08 22:30N 37°57' E 023°37'0 0.0
2018-Feb-08 21:30N 37°57' E 023°37'0 0.0
2018-Feb-08 20:30N 37°57' E 023°37'0 0.0
2018-Feb-08 19:30N 37°57' E 023°37'0 0.0
2018-Feb-08 19:00N 37°57' E 023°37'0 0.0
2018-Feb-08 18:30N 37°57' E 023°37'0 0.0
2018-Feb-08 18:00N 37°57' E 023°37'0 0.0
2018-Feb-08 17:30N 37°57' E 023°37'0 0.0
2018-Feb-08 17:00N 37°57' E 023°37'0 0.0
2018-Feb-08 16:30N 37°57' E 023°37'0 0.0
2018-Feb-08 16:00N 37°57' E 023°37'0 0.0
2018-Feb-08 15:30N 37°57' E 023°37'0 0.0
2018-Feb-08 14:30N 37°57' E 023°37'0 0.0
2018-Feb-08 13:30N 37°57' E 023°37'0 0.0
2018-Feb-08 12:30N 37°57' E 023°37'0 0.0
2018-Feb-08 12:00N 37°57' E 023°37'1 1.9
2018-Feb-08 11:30N 37°57' E 023°36'0 0.2
2018-Feb-08 11:00N 37°57' E 023°36'0 0.0
2018-Feb-08 10:30N 37°57' E 023°36'0 0.0
2018-Feb-08 10:00N 37°57' E 023°36'0 0.0
2018-Feb-08 09:30N 37°57' E 023°36'0 0.0
2018-Feb-08 09:00N 37°57' E 023°36'0 0.0
2018-Feb-08 07:30N 37°57' E 023°36'0 0.4
2018-Feb-08 07:00N 37°57' E 023°36'1 0.9
2018-Feb-08 06:00N 37°57' E 023°37'0 0.0
2018-Feb-08 05:30N 37°57' E 023°37'0 0.0
2018-Feb-08 05:00N 37°57' E 023°37'0 0.0
2018-Feb-08 04:30N 37°57' E 023°37'0 0.0
2018-Feb-08 03:30N 37°57' E 023°37'0 0.0
2018-Feb-08 03:00N 37°57' E 023°37'0 0.0
2018-Feb-08 01:30N 37°57' E 023°37'0 0.0
2018-Feb-08 01:00N 37°57' E 023°37'0 0.0
2018-Feb-08 00:30N 37°57' E 023°37'0 0.0
2018-Feb-08 00:00N 37°57' E 023°37'0 0.0
2018-Feb-07 23:30N 37°57' E 023°37'  

Dump ship's entire track history